sensor_id;sensor_type;location;lat;lon;timestamp;pressure;altitude;pressure_sealevel;temperature;humidity
68873;BME280;55907;50.806;12.882;2023-05-23T00:02:23;970.4;;;14.7;99.3
68873;BME280;55907;50.806;12.882;2023-05-23T00:05:24;970.3;;;14.7;100.0
68873;BME280;55907;50.806;12.882;2023-05-23T00:08:26;970.2;;;14.7;100.0
68873;BME280;55907;50.806;12.882;2023-05-23T00:11:27;970.2;;;14.7;100.0
68873;BME280;55907;50.806;12.882;2023-05-23T00:14:29;970.2;;;14.7;100.0
68873;BME280;55907;50.806;12.882;2023-05-23T00:17:30;970.2;;;14.8;100.0
68873;BME280;55907;50.806;12.882;2023-05-23T00:20:32;970.1;;;14.8;100.0
68873;BME280;55907;50.806;12.882;2023-05-23T00:23:33;970.0;;;14.9;100.0
68873;BME280;55907;50.806;12.882;2023-05-23T00:29:36;970.0;;;15.0;100.0
68873;BME280;55907;50.806;12.882;2023-05-23T00:32:38;970.0;;;15.0;100.0
68873;BME280;55907;50.806;12.882;2023-05-23T00:38:41;970.2;;;15.1;100.0
68873;BME280;55907;50.806;12.882;2023-05-23T00:41:42;970.2;;;15.2;100.0
68873;BME280;55907;50.806;12.882;2023-05-23T00:44:44;970.2;;;15.2;100.0
68873;BME280;55907;50.806;12.882;2023-05-23T00:47:46;970.1;;;15.2;100.0
68873;BME280;55907;50.806;12.882;2023-05-23T00:56:50;970.0;;;15.2;100.0
68873;BME280;55907;50.806;12.882;2023-05-23T00:59:51;970.1;;;15.2;100.0
68873;BME280;55907;50.806;12.882;2023-05-23T01:08:55;969.9;;;15.2;100.0
68873;BME280;55907;50.806;12.882;2023-05-23T01:12:11;969.9;;;15.3;100.0
68873;BME280;55907;50.806;12.882;2023-05-23T01:15:07;969.9;;;15.2;100.0
68873;BME280;55907;50.806;12.882;2023-05-23T01:18:03;969.8;;;15.3;100.0
68873;BME280;55907;50.806;12.882;2023-05-23T01:21:05;969.8;;;15.3;100.0
68873;BME280;55907;50.806;12.882;2023-05-23T01:24:19;969.8;;;15.3;100.0
68873;BME280;55907;50.806;12.882;2023-05-23T01:27:08;969.8;;;15.3;100.0
68873;BME280;55907;50.806;12.882;2023-05-23T01:36:12;969.8;;;15.4;100.0
68873;BME280;55907;50.806;12.882;2023-05-23T01:39:10;969.8;;;15.3;100.0
68873;BME280;55907;50.806;12.882;2023-05-23T01:42:12;969.7;;;15.3;100.0
68873;BME280;55907;50.806;12.882;2023-05-23T01:48:15;969.5;;;15.2;100.0
68873;BME280;55907;50.806;12.882;2023-05-23T01:51:16;969.5;;;15.2;100.0
68873;BME280;55907;50.806;12.882;2023-05-23T01:54:18;969.5;;;15.3;100.0
68873;BME280;55907;50.806;12.882;2023-05-23T01:57:20;969.4;;;15.2;100.0
68873;BME280;55907;50.806;12.882;2023-05-23T02:00:21;969.4;;;15.2;100.0
68873;BME280;55907;50.806;12.882;2023-05-23T02:03:22;969.3;;;15.3;100.0
68873;BME280;55907;50.806;12.882;2023-05-23T02:09:25;969.2;;;15.2;100.0
68873;BME280;55907;50.806;12.882;2023-05-23T02:12:27;969.2;;;15.3;100.0
68873;BME280;55907;50.806;12.882;2023-05-23T02:18:30;969.1;;;15.3;100.0
68873;BME280;55907;50.806;12.882;2023-05-23T02:21:31;969.2;;;15.4;99.3
68873;BME280;55907;50.806;12.882;2023-05-23T02:36:39;969.3;;;15.5;100.0
68873;BME280;55907;50.806;12.882;2023-05-23T02:39:41;969.2;;;15.5;100.0
68873;BME280;55907;50.806;12.882;2023-05-23T02:42:41;969.2;;;15.5;100.0
68873;BME280;55907;50.806;12.882;2023-05-23T02:45:43;969.2;;;15.5;100.0
68873;BME280;55907;50.806;12.882;2023-05-23T02:51:46;969.3;;;15.5;100.0
68873;BME280;55907;50.806;12.882;2023-05-23T02:54:47;969.3;;;15.4;100.0
68873;BME280;55907;50.806;12.882;2023-05-23T02:57:49;969.3;;;15.4;100.0
68873;BME280;55907;50.806;12.882;2023-05-23T03:00:50;969.2;;;15.4;100.0
68873;BME280;55907;50.806;12.882;2023-05-23T03:03:52;969.3;;;15.3;100.0
68873;BME280;55907;50.806;12.882;2023-05-23T03:06:53;969.4;;;15.3;100.0
68873;BME280;55907;50.806;12.882;2023-05-23T03:09:55;969.4;;;15.3;100.0
68873;BME280;55907;50.806;12.882;2023-05-23T03:12:56;969.4;;;15.3;100.0
68873;BME280;55907;50.806;12.882;2023-05-23T03:15:58;969.3;;;15.4;100.0
68873;BME280;55907;50.806;12.882;2023-05-23T03:18:59;969.3;;;15.3;100.0
68873;BME280;55907;50.806;12.882;2023-05-23T03:22:01;969.3;;;15.3;100.0
68873;BME280;55907;50.806;12.882;2023-05-23T03:25:03;969.3;;;15.3;100.0
68873;BME280;55907;50.806;12.882;2023-05-23T03:28:04;969.4;;;15.3;100.0
68873;BME280;55907;50.806;12.882;2023-05-23T03:31:05;969.5;;;15.3;100.0
68873;BME280;55907;50.806;12.882;2023-05-23T03:37:08;969.5;;;15.2;100.0
68873;BME280;55907;50.806;12.882;2023-05-23T03:40:10;969.5;;;15.2;100.0
68873;BME280;55907;50.806;12.882;2023-05-23T03:46:13;969.6;;;15.2;100.0
68873;BME280;55907;50.806;12.882;2023-05-23T03:49:14;969.7;;;15.2;100.0
68873;BME280;55907;50.806;12.882;2023-05-23T03:55:17;969.8;;;15.3;100.0
68873;BME280;55907;50.806;12.882;2023-05-23T03:58:19;969.8;;;15.4;100.0
68873;BME280;55907;50.806;12.882;2023-05-23T04:07:23;969.8;;;15.6;100.0
68873;BME280;55907;50.806;12.882;2023-05-23T04:10:24;969.8;;;15.6;100.0
68873;BME280;55907;50.806;12.882;2023-05-23T04:16:27;969.9;;;15.7;100.0
68873;BME280;55907;50.806;12.882;2023-05-23T04:19:29;970.0;;;15.8;100.0
68873;BME280;55907;50.806;12.882;2023-05-23T04:22:30;969.9;;;15.8;100.0
68873;BME280;55907;50.806;12.882;2023-05-23T04:25:32;970.0;;;15.9;100.0
68873;BME280;55907;50.806;12.882;2023-05-23T04:34:36;970.1;;;16.4;99.7
68873;BME280;55907;50.806;12.882;2023-05-23T04:37:38;970.1;;;16.5;99.4
68873;BME280;55907;50.806;12.882;2023-05-23T04:40:39;970.1;;;16.7;98.2
68873;BME280;55907;50.806;12.882;2023-05-23T04:43:41;970.1;;;16.9;96.9
68873;BME280;55907;50.806;12.882;2023-05-23T04:46:42;970.1;;;17.0;95.7
68873;BME280;55907;50.806;12.882;2023-05-23T04:52:45;970.2;;;17.1;94.7
68873;BME280;55907;50.806;12.882;2023-05-23T04:55:47;970.2;;;17.2;94.8
68873;BME280;55907;50.806;12.882;2023-05-23T05:01:49;970.2;;;17.4;93.2
68873;BME280;55907;50.806;12.882;2023-05-23T05:07:52;970.3;;;17.3;94.8
68873;BME280;55907;50.806;12.882;2023-05-23T05:10:54;970.2;;;17.2;95.1
68873;BME280;55907;50.806;12.882;2023-05-23T05:13:55;970.2;;;17.2;94.8
68873;BME280;55907;50.806;12.882;2023-05-23T05:16:57;970.2;;;17.2;95.2
68873;BME280;55907;50.806;12.882;2023-05-23T05:19:58;970.3;;;17.2;95.5
68873;BME280;55907;50.806;12.882;2023-05-23T05:23:00;970.3;;;17.2;95.8
68873;BME280;55907;50.806;12.882;2023-05-23T05:26:01;970.3;;;17.2;95.0
68873;BME280;55907;50.806;12.882;2023-05-23T05:32:04;970.3;;;17.2;95.1
68873;BME280;55907;50.806;12.882;2023-05-23T05:35:06;970.4;;;17.3;94.8
68873;BME280;55907;50.806;12.882;2023-05-23T05:38:07;970.4;;;17.3;93.7
68873;BME280;55907;50.806;12.882;2023-05-23T05:41:08;970.4;;;17.4;94.3
68873;BME280;55907;50.806;12.882;2023-05-23T05:47:11;970.5;;;17.6;92.3
68873;BME280;55907;50.806;12.882;2023-05-23T05:50:13;970.5;;;17.8;91.6
68873;BME280;55907;50.806;12.882;2023-05-23T05:53:14;970.5;;;17.8;90.3
68873;BME280;55907;50.806;12.882;2023-05-23T05:59:17;970.6;;;17.8;91.3
68873;BME280;55907;50.806;12.882;2023-05-23T06:02:18;970.7;;;17.7;90.8
68873;BME280;55907;50.806;12.882;2023-05-23T06:05:20;970.6;;;17.6;91.3
68873;BME280;55907;50.806;12.882;2023-05-23T06:11:23;970.6;;;17.5;92.6
68873;BME280;55907;50.806;12.882;2023-05-23T06:14:24;970.6;;;17.4;90.6
68873;BME280;55907;50.806;12.882;2023-05-23T06:17:27;970.7;;;17.3;90.8
68873;BME280;55907;50.806;12.882;2023-05-23T06:20:27;970.7;;;17.3;91.2
68873;BME280;55907;50.806;12.882;2023-05-23T06:23:29;970.7;;;17.2;91.5
68873;BME280;55907;50.806;12.882;2023-05-23T06:26:30;970.7;;;17.2;90.7
68873;BME280;55907;50.806;12.882;2023-05-23T06:29:31;970.7;;;17.3;90.7
68873;BME280;55907;50.806;12.882;2023-05-23T06:32:33;970.6;;;17.5;89.7
68873;BME280;55907;50.806;12.882;2023-05-23T06:35:34;970.7;;;17.5;89.0
68873;BME280;55907;50.806;12.882;2023-05-23T06:41:37;970.8;;;17.4;89.3
68873;BME280;55907;50.806;12.882;2023-05-23T06:44:39;970.7;;;17.4;89.9
68873;BME280;55907;50.806;12.882;2023-05-23T06:47:40;970.7;;;17.4;89.0
68873;BME280;55907;50.806;12.882;2023-05-23T06:50:42;970.7;;;17.5;88.9
68873;BME280;55907;50.806;12.882;2023-05-23T06:56:45;970.8;;;17.5;88.2
68873;BME280;55907;50.806;12.882;2023-05-23T06:59:46;970.8;;;17.5;89.7
68873;BME280;55907;50.806;12.882;2023-05-23T07:05:49;970.8;;;17.3;89.5
68873;BME280;55907;50.806;12.882;2023-05-23T07:08:50;970.8;;;17.2;90.0
68873;BME280;55907;50.806;12.882;2023-05-23T07:11:52;970.8;;;17.2;90.6
68873;BME280;55907;50.806;12.882;2023-05-23T07:14:53;970.8;;;17.1;91.8
68873;BME280;55907;50.806;12.882;2023-05-23T07:20:56;970.9;;;17.1;92.0
68873;BME280;55907;50.806;12.882;2023-05-23T07:23:58;970.9;;;17.1;92.2
68873;BME280;55907;50.806;12.882;2023-05-23T07:26:59;970.9;;;17.1;92.3
68873;BME280;55907;50.806;12.882;2023-05-23T07:33:02;970.9;;;17.1;92.2
68873;BME280;55907;50.806;12.882;2023-05-23T07:36:03;971.0;;;17.1;91.4
68873;BME280;55907;50.806;12.882;2023-05-23T07:39:05;970.9;;;17.2;90.0
68873;BME280;55907;50.806;12.882;2023-05-23T07:42:06;970.9;;;17.0;88.5
68873;BME280;55907;50.806;12.882;2023-05-23T07:45:08;970.9;;;17.0;89.4
68873;BME280;55907;50.806;12.882;2023-05-23T07:48:09;970.9;;;17.0;90.0
68873;BME280;55907;50.806;12.882;2023-05-23T07:51:11;970.9;;;16.9;89.6
68873;BME280;55907;50.806;12.882;2023-05-23T07:54:12;971.0;;;16.8;90.2
68873;BME280;55907;50.806;12.882;2023-05-23T07:57:13;971.0;;;16.8;89.9
68873;BME280;55907;50.806;12.882;2023-05-23T08:00:15;971.0;;;16.8;89.7
68873;BME280;55907;50.806;12.882;2023-05-23T08:03:16;971.0;;;16.9;89.0
68873;BME280;55907;50.806;12.882;2023-05-23T08:06:18;971.0;;;16.9;88.6
68873;BME280;55907;50.806;12.882;2023-05-23T08:09:19;971.1;;;17.0;88.2
68873;BME280;55907;50.806;12.882;2023-05-23T08:12:21;971.1;;;17.1;89.3
68873;BME280;55907;50.806;12.882;2023-05-23T08:18:24;971.2;;;17.2;87.9
68873;BME280;55907;50.806;12.882;2023-05-23T08:21:25;971.2;;;17.2;88.3
68873;BME280;55907;50.806;12.882;2023-05-23T08:24:26;971.1;;;17.2;88.0
68873;BME280;55907;50.806;12.882;2023-05-23T08:30:29;971.2;;;17.0;88.4
68873;BME280;55907;50.806;12.882;2023-05-23T08:33:31;971.2;;;16.8;90.5
68873;BME280;55907;50.806;12.882;2023-05-23T08:36:32;971.3;;;16.7;90.9
68873;BME280;55907;50.806;12.882;2023-05-23T08:39:34;971.3;;;16.7;91.6
68873;BME280;55907;50.806;12.882;2023-05-23T08:42:35;971.3;;;16.6;91.4
68873;BME280;55907;50.806;12.882;2023-05-23T08:45:36;971.4;;;16.4;92.9
68873;BME280;55907;50.806;12.882;2023-05-23T08:48:38;971.4;;;16.3;92.6
68873;BME280;55907;50.806;12.882;2023-05-23T08:51:41;971.5;;;16.2;91.0
68873;BME280;55907;50.806;12.882;2023-05-23T08:54:41;971.5;;;16.1;90.3
68873;BME280;55907;50.806;12.882;2023-05-23T08:57:43;971.5;;;16.1;90.9
68873;BME280;55907;50.806;12.882;2023-05-23T09:00:44;971.5;;;16.0;89.6
68873;BME280;55907;50.806;12.882;2023-05-23T09:03:46;971.5;;;16.0;89.2
68873;BME280;55907;50.806;12.882;2023-05-23T09:12:50;971.6;;;16.4;86.4
68873;BME280;55907;50.806;12.882;2023-05-23T09:15:55;971.7;;;16.5;85.3
68873;BME280;55907;50.806;12.882;2023-05-23T09:21:54;971.7;;;16.6;83.2
68873;BME280;55907;50.806;12.882;2023-05-23T09:24:56;971.7;;;16.7;83.3
68873;BME280;55907;50.806;12.882;2023-05-23T09:30:59;971.8;;;16.8;83.7
68873;BME280;55907;50.806;12.882;2023-05-23T09:34:00;971.8;;;16.6;83.6
68873;BME280;55907;50.806;12.882;2023-05-23T09:37:02;971.8;;;16.6;83.7
68873;BME280;55907;50.806;12.882;2023-05-23T09:43:04;971.8;;;16.5;83.8
68873;BME280;55907;50.806;12.882;2023-05-23T09:46:06;971.8;;;16.7;83.3
68873;BME280;55907;50.806;12.882;2023-05-23T09:49:14;971.8;;;16.9;81.6
68873;BME280;55907;50.806;12.882;2023-05-23T09:52:09;971.8;;;17.1;81.2
68873;BME280;55907;50.806;12.882;2023-05-23T09:55:10;971.8;;;17.4;80.3
68873;BME280;55907;50.806;12.882;2023-05-23T09:58:12;971.8;;;17.6;79.8
68873;BME280;55907;50.806;12.882;2023-05-23T10:01:14;971.8;;;17.8;76.7
68873;BME280;55907;50.806;12.882;2023-05-23T10:04:17;971.8;;;18.0;76.2
68873;BME280;55907;50.806;12.882;2023-05-23T10:07:18;971.8;;;18.0;75.9
68873;BME280;55907;50.806;12.882;2023-05-23T10:10:18;971.8;;;17.7;75.8
68873;BME280;55907;50.806;12.882;2023-05-23T10:13:19;971.8;;;17.4;77.2
68873;BME280;55907;50.806;12.882;2023-05-23T10:16:26;971.8;;;17.1;78.2
68873;BME280;55907;50.806;12.882;2023-05-23T10:19:24;971.8;;;16.9;78.7
68873;BME280;55907;50.806;12.882;2023-05-23T10:22:24;971.9;;;16.9;80.7
68873;BME280;55907;50.806;12.882;2023-05-23T10:25:25;971.9;;;17.0;81.0
68873;BME280;55907;50.806;12.882;2023-05-23T10:34:33;972.0;;;17.3;77.7
68873;BME280;55907;50.806;12.882;2023-05-23T10:37:37;972.0;;;17.4;76.5
68873;BME280;55907;50.806;12.882;2023-05-23T10:40:38;971.9;;;17.6;75.0
68873;BME280;55907;50.806;12.882;2023-05-23T10:43:39;972.0;;;18.1;74.6
68873;BME280;55907;50.806;12.882;2023-05-23T10:46:48;971.9;;;18.8;72.3
68873;BME280;55907;50.806;12.882;2023-05-23T10:49:37;971.9;;;19.2;69.4
68873;BME280;55907;50.806;12.882;2023-05-23T10:52:38;972.0;;;19.5;68.4
68873;BME280;55907;50.806;12.882;2023-05-23T10:55:39;972.0;;;19.5;67.5
68873;BME280;55907;50.806;12.882;2023-05-23T10:58:40;972.0;;;19.3;68.1
68873;BME280;55907;50.806;12.882;2023-05-23T11:01:42;972.0;;;19.2;69.1
68873;BME280;55907;50.806;12.882;2023-05-23T11:04:44;972.0;;;19.1;65.9
68873;BME280;55907;50.806;12.882;2023-05-23T11:07:45;972.0;;;19.5;65.6
68873;BME280;55907;50.806;12.882;2023-05-23T11:10:55;972.0;;;19.8;64.2
68873;BME280;55907;50.806;12.882;2023-05-23T11:13:56;972.0;;;20.4;61.4
68873;BME280;55907;50.806;12.882;2023-05-23T11:16:49;972.0;;;20.6;61.0
68873;BME280;55907;50.806;12.882;2023-05-23T11:19:55;972.0;;;20.4;59.8
68873;BME280;55907;50.806;12.882;2023-05-23T11:22:53;972.1;;;20.1;60.6
68873;BME280;55907;50.806;12.882;2023-05-23T11:25:53;972.1;;;19.8;61.7
68873;BME280;55907;50.806;12.882;2023-05-23T11:28:55;972.1;;;19.5;62.5
68873;BME280;55907;50.806;12.882;2023-05-23T11:31:56;972.1;;;19.4;62.3
68873;BME280;55907;50.806;12.882;2023-05-23T11:34:58;972.1;;;19.3;62.7
68873;BME280;55907;50.806;12.882;2023-05-23T11:37:59;972.1;;;19.1;62.5
68873;BME280;55907;50.806;12.882;2023-05-23T11:41:00;972.1;;;18.8;63.6
68873;BME280;55907;50.806;12.882;2023-05-23T11:44:10;972.1;;;18.8;64.2
68873;BME280;55907;50.806;12.882;2023-05-23T11:47:05;972.1;;;18.7;65.8
68873;BME280;55907;50.806;12.882;2023-05-23T11:50:05;972.0;;;18.6;65.9
68873;BME280;55907;50.806;12.882;2023-05-23T11:53:06;972.1;;;18.5;65.4
68873;BME280;55907;50.806;12.882;2023-05-23T11:56:08;972.1;;;18.3;67.4
68873;BME280;55907;50.806;12.882;2023-05-23T11:59:09;972.1;;;18.0;67.5
68873;BME280;55907;50.806;12.882;2023-05-23T12:02:10;972.1;;;17.7;68.5
68873;BME280;55907;50.806;12.882;2023-05-23T12:05:13;972.1;;;17.5;69.7
68873;BME280;55907;50.806;12.882;2023-05-23T12:08:13;972.1;;;17.2;69.6
68873;BME280;55907;50.806;12.882;2023-05-23T12:23:21;972.2;;;17.4;70.9
68873;BME280;55907;50.806;12.882;2023-05-23T12:29:28;972.2;;;17.5;70.5
68873;BME280;55907;50.806;12.882;2023-05-23T12:32:25;972.3;;;17.6;70.2
68873;BME280;55907;50.806;12.882;2023-05-23T12:38:28;972.2;;;18.0;70.6
68873;BME280;55907;50.806;12.882;2023-05-23T12:41:31;972.2;;;17.8;70.0
68873;BME280;55907;50.806;12.882;2023-05-23T12:50:34;972.3;;;17.7;71.1
68873;BME280;55907;50.806;12.882;2023-05-23T12:53:35;972.3;;;18.0;70.8
68873;BME280;55907;50.806;12.882;2023-05-23T12:59:38;972.3;;;18.0;70.3
68873;BME280;55907;50.806;12.882;2023-05-23T13:02:39;972.3;;;18.0;70.4
68873;BME280;55907;50.806;12.882;2023-05-23T13:05:41;972.4;;;17.9;70.8
68873;BME280;55907;50.806;12.882;2023-05-23T13:08:42;972.4;;;17.9;71.5
68873;BME280;55907;50.806;12.882;2023-05-23T13:14:45;972.4;;;17.6;73.2
68873;BME280;55907;50.806;12.882;2023-05-23T13:35:55;972.6;;;16.4;81.8
68873;BME280;55907;50.806;12.882;2023-05-23T13:38:57;972.6;;;16.2;83.3
68873;BME280;55907;50.806;12.882;2023-05-23T13:41:58;972.6;;;15.9;85.2
68873;BME280;55907;50.806;12.882;2023-05-23T13:45:00;972.6;;;15.8;87.5
68873;BME280;55907;50.806;12.882;2023-05-23T13:54:04;972.7;;;15.6;90.2
68873;BME280;55907;50.806;12.882;2023-05-23T13:57:06;972.7;;;15.6;90.2
68873;BME280;55907;50.806;12.882;2023-05-23T14:03:08;972.7;;;15.6;90.8
68873;BME280;55907;50.806;12.882;2023-05-23T14:06:10;972.8;;;15.5;91.1
68873;BME280;55907;50.806;12.882;2023-05-23T14:09:12;972.8;;;15.4;92.5
68873;BME280;55907;50.806;12.882;2023-05-23T14:12:13;972.8;;;15.4;92.5
68873;BME280;55907;50.806;12.882;2023-05-23T14:15:15;972.8;;;15.3;93.6
68873;BME280;55907;50.806;12.882;2023-05-23T14:18:16;972.8;;;15.1;94.5
68873;BME280;55907;50.806;12.882;2023-05-23T14:27:20;973.0;;;14.4;96.5
68873;BME280;55907;50.806;12.882;2023-05-23T14:33:24;973.0;;;14.3;98.7
68873;BME280;55907;50.806;12.882;2023-05-23T14:36:27;973.0;;;14.3;95.9
68873;BME280;55907;50.806;12.882;2023-05-23T14:45:29;973.1;;;13.9;97.9
68873;BME280;55907;50.806;12.882;2023-05-23T14:48:31;973.1;;;13.9;97.8
68873;BME280;55907;50.806;12.882;2023-05-23T14:51:32;973.1;;;13.9;96.4
68873;BME280;55907;50.806;12.882;2023-05-23T14:57:35;973.1;;;13.8;96.7
68873;BME280;55907;50.806;12.882;2023-05-23T15:00:37;973.2;;;13.8;97.7
68873;BME280;55907;50.806;12.882;2023-05-23T15:03:38;973.3;;;13.9;96.8
68873;BME280;55907;50.806;12.882;2023-05-23T15:09:41;973.3;;;13.8;95.5
68873;BME280;55907;50.806;12.882;2023-05-23T15:12:43;973.4;;;13.8;95.5
68873;BME280;55907;50.806;12.882;2023-05-23T15:33:53;973.4;;;13.4;97.3
68873;BME280;55907;50.806;12.882;2023-05-23T15:36:54;973.4;;;13.3;98.8
68873;BME280;55907;50.806;12.882;2023-05-23T15:39:56;973.4;;;13.2;98.8
68873;BME280;55907;50.806;12.882;2023-05-23T15:45:59;973.5;;;13.4;97.9
68873;BME280;55907;50.806;12.882;2023-05-23T15:49:00;973.4;;;13.4;97.6
68873;BME280;55907;50.806;12.882;2023-05-23T15:52:02;973.3;;;13.3;97.3
68873;BME280;55907;50.806;12.882;2023-05-23T15:55:04;973.4;;;13.3;96.4
68873;BME280;55907;50.806;12.882;2023-05-23T15:58:05;973.4;;;13.2;96.1
68873;BME280;55907;50.806;12.882;2023-05-23T16:01:06;973.4;;;13.2;96.6
68873;BME280;55907;50.806;12.882;2023-05-23T16:10:11;973.5;;;13.1;96.4
68873;BME280;55907;50.806;12.882;2023-05-23T16:13:12;973.5;;;13.1;95.6
68873;BME280;55907;50.806;12.882;2023-05-23T16:16:14;973.5;;;13.1;95.7
68873;BME280;55907;50.806;12.882;2023-05-23T16:19:15;973.6;;;13.1;95.9
68873;BME280;55907;50.806;12.882;2023-05-23T16:25:18;973.7;;;12.9;94.8
68873;BME280;55907;50.806;12.882;2023-05-23T16:34:23;973.6;;;12.8;96.3
68873;BME280;55907;50.806;12.882;2023-05-23T16:37:24;973.6;;;12.8;96.4
68873;BME280;55907;50.806;12.882;2023-05-23T16:40:26;973.7;;;12.7;96.8
68873;BME280;55907;50.806;12.882;2023-05-23T16:43:27;973.8;;;12.7;96.1
68873;BME280;55907;50.806;12.882;2023-05-23T16:46:29;973.9;;;12.7;96.9
68873;BME280;55907;50.806;12.882;2023-05-23T16:49:30;974.0;;;12.8;96.0
68873;BME280;55907;50.806;12.882;2023-05-23T16:52:32;974.0;;;12.6;95.1
68873;BME280;55907;50.806;12.882;2023-05-23T16:55:33;974.0;;;12.5;96.2
68873;BME280;55907;50.806;12.882;2023-05-23T16:58:35;974.0;;;12.3;96.3
68873;BME280;55907;50.806;12.882;2023-05-23T17:04:38;974.1;;;12.3;95.6
68873;BME280;55907;50.806;12.882;2023-05-23T17:07:39;974.1;;;12.2;95.5
68873;BME280;55907;50.806;12.882;2023-05-23T17:13:42;974.2;;;12.1;95.9
68873;BME280;55907;50.806;12.882;2023-05-23T17:19:46;974.2;;;12.0;96.6
68873;BME280;55907;50.806;12.882;2023-05-23T17:22:47;974.3;;;11.9;97.0
68873;BME280;55907;50.806;12.882;2023-05-23T17:25:48;974.3;;;11.8;97.9
68873;BME280;55907;50.806;12.882;2023-05-23T17:28:50;974.3;;;11.8;99.1
68873;BME280;55907;50.806;12.882;2023-05-23T17:31:51;974.4;;;11.8;99.8
68873;BME280;55907;50.806;12.882;2023-05-23T17:34:53;974.4;;;11.7;100.0
68873;BME280;55907;50.806;12.882;2023-05-23T17:37:54;974.5;;;11.5;100.0
68873;BME280;55907;50.806;12.882;2023-05-23T17:43:57;974.5;;;11.5;100.0
68873;BME280;55907;50.806;12.882;2023-05-23T17:46:59;974.5;;;11.5;100.0
68873;BME280;55907;50.806;12.882;2023-05-23T17:53:02;974.6;;;11.4;99.1
68873;BME280;55907;50.806;12.882;2023-05-23T17:59:05;974.6;;;11.2;100.0
68873;BME280;55907;50.806;12.882;2023-05-23T18:02:06;974.7;;;11.2;99.6
68873;BME280;55907;50.806;12.882;2023-05-23T18:05:08;974.7;;;11.0;100.0
68873;BME280;55907;50.806;12.882;2023-05-23T18:08:09;974.7;;;11.0;100.0
68873;BME280;55907;50.806;12.882;2023-05-23T18:11:11;974.8;;;11.1;100.0
68873;BME280;55907;50.806;12.882;2023-05-23T18:14:12;974.8;;;11.0;100.0
68873;BME280;55907;50.806;12.882;2023-05-23T18:17:14;974.9;;;11.0;100.0
68873;BME280;55907;50.806;12.882;2023-05-23T18:20:15;974.9;;;10.9;100.0
68873;BME280;55907;50.806;12.882;2023-05-23T18:23:17;975.0;;;10.9;100.0
68873;BME280;55907;50.806;12.882;2023-05-23T18:26:18;975.0;;;10.9;100.0
68873;BME280;55907;50.806;12.882;2023-05-23T18:29:20;975.0;;;10.9;100.0
68873;BME280;55907;50.806;12.882;2023-05-23T18:32:21;975.0;;;10.9;100.0
68873;BME280;55907;50.806;12.882;2023-05-23T18:38:24;975.1;;;10.8;100.0
68873;BME280;55907;50.806;12.882;2023-05-23T18:44:27;975.1;;;10.9;100.0
68873;BME280;55907;50.806;12.882;2023-05-23T18:47:29;975.1;;;10.9;100.0
68873;BME280;55907;50.806;12.882;2023-05-23T18:50:30;975.2;;;10.9;100.0
68873;BME280;55907;50.806;12.882;2023-05-23T18:53:32;975.2;;;10.9;100.0
68873;BME280;55907;50.806;12.882;2023-05-23T18:56:34;975.2;;;10.9;99.3
68873;BME280;55907;50.806;12.882;2023-05-23T18:59:35;975.3;;;10.9;99.6
68873;BME280;55907;50.806;12.882;2023-05-23T19:05:38;975.5;;;10.8;99.5
68873;BME280;55907;50.806;12.882;2023-05-23T19:08:40;975.5;;;10.9;99.3
68873;BME280;55907;50.806;12.882;2023-05-23T19:11:41;975.5;;;10.9;99.5
68873;BME280;55907;50.806;12.882;2023-05-23T19:17:44;975.7;;;10.9;99.2
68873;BME280;55907;50.806;12.882;2023-05-23T19:20:46;975.8;;;10.9;99.2
68873;BME280;55907;50.806;12.882;2023-05-23T19:26:49;975.8;;;10.9;100.0
68873;BME280;55907;50.806;12.882;2023-05-23T19:29:50;975.9;;;10.9;100.0
68873;BME280;55907;50.806;12.882;2023-05-23T19:32:52;975.9;;;10.9;100.0
68873;BME280;55907;50.806;12.882;2023-05-23T19:35:54;975.9;;;10.9;100.0
68873;BME280;55907;50.806;12.882;2023-05-23T19:38:55;976.0;;;11.0;99.6
68873;BME280;55907;50.806;12.882;2023-05-23T19:41:56;976.0;;;10.9;99.4
68873;BME280;55907;50.806;12.882;2023-05-23T19:47:59;976.0;;;10.9;100.0
68873;BME280;55907;50.806;12.882;2023-05-23T19:51:01;976.0;;;10.9;98.9
68873;BME280;55907;50.806;12.882;2023-05-23T19:54:02;976.1;;;10.9;98.1
68873;BME280;55907;50.806;12.882;2023-05-23T19:57:04;976.1;;;10.8;97.8
68873;BME280;55907;50.806;12.882;2023-05-23T20:00:06;976.1;;;10.8;99.1
68873;BME280;55907;50.806;12.882;2023-05-23T20:03:07;976.1;;;10.9;99.6
68873;BME280;55907;50.806;12.882;2023-05-23T20:06:09;976.2;;;10.9;98.5
68873;BME280;55907;50.806;12.882;2023-05-23T20:12:12;976.2;;;10.9;97.2
68873;BME280;55907;50.806;12.882;2023-05-23T20:18:15;976.2;;;11.0;97.1
68873;BME280;55907;50.806;12.882;2023-05-23T20:21:16;976.2;;;11.0;96.5
68873;BME280;55907;50.806;12.882;2023-05-23T20:22:52;unavailable;;;unavailable;unavailable
68873;BME280;55907;50.806;12.882;2023-05-23T20:23:03;976.2;;;11.0;95.8
68873;BME280;55907;50.806;12.882;2023-05-23T20:24:18;976.3;;;11.0;95.3
68873;BME280;55907;50.806;12.882;2023-05-23T20:27:19;976.3;;;11.0;96.5
68873;BME280;55907;50.806;12.882;2023-05-23T20:33:22;976.4;;;10.9;95.3
68873;BME280;55907;50.806;12.882;2023-05-23T20:36:24;976.4;;;10.9;95.3
68873;BME280;55907;50.806;12.882;2023-05-23T20:39:26;976.4;;;10.9;95.3
68873;BME280;55907;50.806;12.882;2023-05-23T20:42:27;976.4;;;11.0;96.0
68873;BME280;55907;50.806;12.882;2023-05-23T20:45:29;976.4;;;11.0;96.2
68873;BME280;55907;50.806;12.882;2023-05-23T20:48:30;976.4;;;11.0;95.7
68873;BME280;55907;50.806;12.882;2023-05-23T20:51:31;976.5;;;11.0;95.0
68873;BME280;55907;50.806;12.882;2023-05-23T20:54:33;976.6;;;11.0;93.4
68873;BME280;55907;50.806;12.882;2023-05-23T20:57:35;976.6;;;11.0;90.5
68873;BME280;55907;50.806;12.882;2023-05-23T21:00:36;976.6;;;10.9;90.3
68873;BME280;55907;50.806;12.882;2023-05-23T21:06:39;976.7;;;10.9;91.8
68873;BME280;55907;50.806;12.882;2023-05-23T21:09:41;976.7;;;10.8;90.7
68873;BME280;55907;50.806;12.882;2023-05-23T21:12:42;976.7;;;10.7;90.4
68873;BME280;55907;50.806;12.882;2023-05-23T21:15:44;976.7;;;10.7;87.9
68873;BME280;55907;50.806;12.882;2023-05-23T21:18:45;976.7;;;10.7;89.2
68873;BME280;55907;50.806;12.882;2023-05-23T21:21:47;976.7;;;10.7;89.0
68873;BME280;55907;50.806;12.882;2023-05-23T21:24:48;976.7;;;10.7;89.4
68873;BME280;55907;50.806;12.882;2023-05-23T21:27:50;976.7;;;10.7;91.4
68873;BME280;55907;50.806;12.882;2023-05-23T21:30:51;976.7;;;10.7;90.9
68873;BME280;55907;50.806;12.882;2023-05-23T21:33:53;976.7;;;10.7;90.5
68873;BME280;55907;50.806;12.882;2023-05-23T21:36:54;976.8;;;10.8;90.0
68873;BME280;55907;50.806;12.882;2023-05-23T21:39:56;976.8;;;10.8;90.1
68873;BME280;55907;50.806;12.882;2023-05-23T21:45:59;976.8;;;10.8;89.4
68873;BME280;55907;50.806;12.882;2023-05-23T21:49:00;976.8;;;10.8;89.2